createdAt,value
2022-09-28T00:02:01.708Z,18.08
2022-09-28T00:04:30.613Z,19.10
2022-09-28T00:06:59.450Z,19.85
2022-09-28T00:09:28.801Z,26.13
2022-09-28T00:11:58.643Z,25.27
2022-09-28T00:14:27.629Z,22.02
2022-09-28T00:16:56.542Z,20.67
2022-09-28T00:19:25.459Z,21.15
2022-09-28T00:21:54.321Z,19.73
2022-09-28T00:24:27.486Z,21.00
2022-09-28T00:26:59.572Z,21.55
2022-09-28T00:29:29.723Z,22.27
2022-09-28T00:32:04.179Z,22.17
2022-09-28T00:34:35.814Z,20.70
2022-09-28T00:37:06.871Z,18.92
2022-09-28T00:39:37.167Z,21.40
2022-09-28T00:42:12.680Z,21.50
2022-09-28T00:44:46.374Z,20.40
2022-09-28T00:47:23.699Z,19.63
2022-09-28T00:50:04.127Z,19.90
2022-09-28T00:52:59.064Z,21.33
2022-09-28T00:55:38.129Z,20.95
2022-09-28T00:58:12.622Z,22.05
2022-09-28T01:00:42.553Z,19.90
2022-09-28T01:03:12.421Z,20.13
2022-09-28T01:05:41.980Z,21.15
2022-09-28T01:08:12.604Z,24.02
2022-09-28T01:10:42.180Z,21.15
2022-09-28T01:13:12.498Z,22.75
2022-09-28T01:18:42.910Z,21.58
2022-09-28T01:21:22.194Z,20.02
2022-09-28T01:24:04.478Z,20.52
2022-09-28T01:26:58.140Z,21.25
2022-09-28T01:29:47.071Z,22.00
2022-09-28T01:32:31.283Z,21.55
2022-09-28T01:38:18.526Z,28.15
2022-09-28T01:40:49.200Z,29.08
2022-09-28T01:43:23.997Z,21.60
2022-09-28T01:49:12.521Z,20.00
2022-09-28T01:51:58.135Z,20.20
2022-09-28T01:54:51.582Z,21.08
2022-09-28T01:57:29.818Z,20.60
2022-09-28T02:00:11.781Z,20.20
2022-09-28T02:03:02.567Z,21.70
2022-09-28T02:05:38.494Z,22.73
2022-09-28T02:08:07.885Z,22.05
2022-09-28T02:10:54.853Z,21.65
2022-09-28T02:13:31.629Z,22.50
2022-09-28T02:16:24.512Z,20.40
2022-09-28T02:18:53.899Z,21.05
2022-09-28T02:21:50.509Z,20.98
2022-09-28T02:24:24.677Z,20.20
2022-09-28T02:26:56.593Z,21.15
2022-09-28T02:29:26.425Z,20.92
2022-09-28T02:31:55.455Z,22.23
2022-09-28T02:34:24.381Z,20.45
2022-09-28T02:36:53.385Z,18.98
2022-09-28T02:39:22.296Z,19.48
2022-09-28T02:42:17.790Z,20.90
2022-09-28T02:44:58.933Z,20.20
2022-09-28T02:47:55.464Z,19.83
2022-09-28T02:50:43.705Z,21.48
2022-09-28T02:53:41.369Z,18.52
2022-09-28T02:56:12.988Z,18.48
2022-09-28T02:58:54.283Z,20.45
2022-09-28T03:01:50.903Z,19.52
2022-09-28T03:04:53.801Z,20.13
2022-09-28T03:07:51.866Z,20.08
2022-09-28T03:10:36.272Z,20.30
2022-09-28T03:13:06.526Z,19.58
2022-09-28T03:15:37.359Z,20.17
2022-09-28T03:18:06.581Z,20.45
2022-09-28T03:20:35.561Z,19.88
2022-09-28T03:23:24.711Z,17.92
2022-09-28T03:25:56.865Z,18.73
2022-09-28T03:28:25.848Z,19.02
2022-09-28T03:30:55.230Z,19.48
2022-09-28T03:33:24.452Z,19.63
2022-09-28T03:35:54.051Z,19.55
2022-09-28T03:38:23.100Z,18.92
2022-09-28T03:41:02.398Z,19.42
2022-09-28T03:43:33.429Z,18.58
2022-09-28T03:46:03.604Z,19.95
2022-09-28T03:48:36.506Z,19.00
2022-09-28T03:51:10.246Z,19.27
2022-09-28T03:53:39.375Z,20.33
2022-09-28T03:56:12.942Z,20.27
2022-09-28T03:58:42.231Z,19.58
2022-09-28T04:01:17.367Z,19.33
2022-09-28T04:03:47.138Z,18.92
2022-09-28T04:06:16.319Z,19.17
2022-09-28T04:08:45.232Z,18.25
2022-09-28T04:11:14.186Z,19.85
2022-09-28T04:13:43.070Z,20.02
2022-09-28T04:16:13.080Z,20.15
2022-09-28T04:18:41.943Z,19.88
2022-09-28T04:21:13.981Z,19.92
2022-09-28T04:23:43.460Z,20.45
2022-09-28T04:26:22.234Z,19.52
2022-09-28T04:29:10.328Z,21.42
2022-09-28T04:31:41.912Z,20.80
2022-09-28T04:34:11.681Z,19.88
2022-09-28T04:36:40.587Z,20.42
2022-09-28T04:39:09.678Z,18.42
2022-09-28T04:41:38.620Z,19.85
2022-09-28T04:44:07.881Z,19.67
2022-09-28T04:46:37.012Z,19.38
2022-09-28T04:49:05.968Z,18.92
2022-09-28T04:51:35.212Z,18.60
2022-09-28T04:54:04.305Z,19.13
2022-09-28T05:20:01.825Z,21.45
2022-09-28T05:22:30.949Z,20.98
2022-09-28T05:25:01.426Z,17.88
2022-09-28T05:27:30.463Z,19.00
2022-09-28T05:29:59.353Z,18.50
2022-09-28T05:32:28.270Z,16.70
2022-09-28T05:34:57.292Z,16.15
2022-09-28T05:37:26.189Z,15.88
2022-09-28T05:39:55.128Z,16.63
2022-09-28T05:42:24.001Z,14.98
2022-09-28T05:44:52.884Z,94.78
2022-09-28T05:47:21.787Z,96.00
2022-09-28T05:49:50.708Z,99.55
2022-09-28T05:52:20.534Z,96.90
2022-09-28T05:54:49.558Z,99.57
2022-09-28T05:57:18.522Z,98.22
2022-09-28T05:59:47.466Z,97.82
2022-09-28T06:02:16.692Z,97.80
2022-09-28T06:04:45.774Z,99.15
2022-09-28T06:07:14.706Z,98.68
2022-09-28T06:09:43.641Z,97.15
2022-09-28T06:12:12.559Z,99.85
2022-09-28T06:14:41.471Z,98.13
2022-09-28T06:17:10.494Z,98.93
2022-09-28T06:19:40.128Z,100.18
2022-09-28T06:22:09.121Z,99.80
2022-09-28T06:24:37.993Z,97.82
2022-09-28T06:27:06.897Z,97.47
2022-09-28T06:29:35.792Z,99.97
2022-09-28T06:32:04.660Z,97.68
2022-09-28T06:34:33.536Z,99.20
2022-09-28T06:37:05.493Z,100.25
2022-09-28T06:39:34.330Z,98.47
2022-09-28T06:42:04.483Z,100.00
2022-09-28T06:44:33.432Z,96.40
2022-09-28T06:47:02.445Z,100.35
2022-09-28T06:49:31.419Z,99.53
2022-09-28T06:52:00.283Z,99.53
2022-09-28T06:54:29.182Z,98.90
2022-09-28T06:56:58.099Z,97.43
2022-09-28T06:59:27.048Z,98.57
2022-09-28T07:01:56.387Z,98.85
2022-09-28T07:04:25.297Z,97.70
2022-09-28T07:06:54.932Z,98.28
2022-09-28T07:09:32.446Z,99.93
2022-09-28T07:12:02.518Z,99.63
2022-09-28T07:14:46.995Z,97.25
2022-09-28T07:17:16.595Z,94.82
2022-09-28T07:19:45.724Z,95.53
2022-09-28T07:22:18.883Z,96.22
2022-09-28T07:24:49.939Z,97.95
2022-09-28T07:27:19.166Z,96.18
2022-09-28T07:29:48.033Z,94.97
2022-09-28T07:32:16.931Z,96.05
2022-09-28T07:34:45.908Z,94.63
2022-09-28T07:37:14.985Z,98.07
2022-09-28T07:40:02.135Z,97.07
2022-09-28T07:42:31.589Z,95.65
2022-09-28T07:45:00.783Z,97.57
2022-09-28T07:47:34.616Z,94.75
2022-09-28T07:50:04.136Z,96.47
2022-09-28T07:52:36.251Z,95.47
2022-09-28T07:55:07.179Z,96.53
2022-09-28T07:57:37.270Z,97.95
2022-09-28T08:00:10.131Z,100.15
2022-09-28T08:02:39.479Z,95.80
2022-09-28T08:05:10.478Z,99.50
2022-09-28T08:07:39.491Z,96.55
2022-09-28T08:10:08.678Z,95.50
2022-09-28T08:12:37.563Z,99.85
2022-09-28T08:15:11.678Z,100.78
2022-09-28T08:17:40.919Z,101.05
2022-09-28T08:20:28.602Z,102.57
2022-09-28T08:22:58.016Z,101.82
2022-09-28T08:25:26.998Z,100.82
2022-09-28T08:27:57.529Z,99.82
2022-09-28T08:30:27.478Z,98.78
2022-09-28T08:32:56.994Z,97.07
2022-09-28T08:35:26.898Z,96.75
2022-09-28T08:37:56.156Z,96.43
2022-09-28T08:40:27.129Z,95.25
2022-09-28T08:43:02.728Z,94.32
2022-09-28T08:45:37.583Z,92.60
2022-09-28T08:48:51.795Z,92.43
2022-09-28T08:51:33.206Z,92.22
2022-09-28T08:54:30.320Z,92.07
2022-09-28T08:57:26.090Z,92.22
2022-09-28T09:00:04.192Z,92.32
2022-09-28T09:02:40.350Z,93.43
2022-09-28T09:05:18.241Z,94.15
2022-09-28T09:07:52.893Z,94.30
2022-09-28T09:10:35.347Z,93.18
2022-09-28T09:13:43.603Z,94.10
2022-09-28T09:16:27.136Z,93.15
2022-09-28T09:19:20.212Z,91.03
2022-09-28T11:41:06.959Z,67.70
2022-09-28T11:44:13.427Z,65.93
2022-09-28T11:47:00.762Z,65.65
2022-09-28T11:50:04.692Z,67.47
2022-09-28T11:52:46.195Z,64.30
2022-09-28T11:55:43.073Z,66.75
2022-09-28T11:58:14.411Z,66.47
2022-09-28T12:00:55.832Z,67.53
2022-09-28T12:03:35.339Z,67.47
2022-09-28T12:06:11.320Z,67.18
2022-09-28T12:08:54.731Z,65.15
2022-09-28T12:11:33.617Z,67.75
2022-09-28T12:14:07.190Z,65.55
2022-09-28T12:17:30.119Z,65.10
2022-09-28T12:20:25.799Z,64.97
2022-09-28T12:22:57.486Z,68.15
2022-09-28T12:25:28.794Z,68.68
2022-09-28T12:28:00.046Z,67.05
2022-09-28T12:30:33.958Z,70.45
2022-09-28T12:36:05.981Z,65.40
2022-09-28T12:39:18.095Z,66.55
2022-09-28T12:42:16.216Z,65.65
2022-09-28T12:45:24.787Z,65.97
2022-09-28T12:48:31.940Z,68.13
2022-09-28T12:51:44.405Z,66.13
2022-09-28T12:54:35.548Z,63.85
2022-09-28T12:57:22.574Z,64.38
2022-09-28T13:00:24.484Z,67.95
2022-09-28T13:03:18.037Z,69.00
2022-09-28T13:06:17.676Z,67.70
2022-09-28T13:09:12.139Z,72.78
2022-09-28T13:12:05.381Z,73.03
2022-09-28T13:15:02.355Z,71.68
2022-09-28T13:17:55.928Z,69.50
2022-09-28T13:20:49.639Z,67.90
2022-09-28T13:23:30.349Z,68.78
2022-09-28T13:26:06.383Z,68.82
2022-09-28T13:28:38.494Z,68.15
2022-09-28T13:31:08.688Z,66.90
2022-09-28T13:33:42.195Z,67.97
2022-09-28T13:36:29.416Z,65.15
